createdAt,value
2022-10-30T00:01:18.198Z,18.25
2022-10-30T00:03:45.489Z,21.05
2022-10-30T00:06:12.806Z,20.58
2022-10-30T00:08:40.085Z,18.63
2022-10-30T00:11:13.428Z,19.60
2022-10-30T00:13:42.523Z,16.48
2022-10-30T00:16:10.584Z,17.45
2022-10-30T00:18:42.263Z,15.73
2022-10-30T00:21:13.871Z,15.55
2022-10-30T00:23:49.873Z,15.57
2022-10-30T00:26:18.739Z,17.10
2022-10-30T00:28:53.917Z,14.57
2022-10-30T00:31:22.844Z,16.85
2022-10-30T00:33:52.135Z,14.52
2022-10-30T00:36:20.572Z,13.98
2022-10-30T00:38:48.214Z,18.52
2022-10-30T00:41:21.543Z,15.38
2022-10-30T00:43:49.248Z,14.82
2022-10-30T00:46:33.412Z,13.50
2022-10-30T00:49:17.690Z,14.45
2022-10-30T00:51:55.182Z,14.80
2022-10-30T00:54:23.672Z,15.27
2022-10-30T00:56:52.266Z,14.35
2022-10-30T00:59:26.406Z,13.70
2022-10-30T01:01:54.821Z,13.65
2022-10-30T01:04:28.927Z,14.10
2022-10-30T01:06:58.696Z,14.60
2022-10-30T01:09:26.088Z,14.65
2022-10-30T01:11:53.371Z,19.52
2022-10-30T01:14:22.078Z,13.82
2022-10-30T01:17:23.081Z,14.85
2022-10-30T01:20:30.870Z,15.30
2022-10-30T01:23:33.468Z,15.05
2022-10-30T01:26:12.514Z,17.58
2022-10-30T01:29:06.918Z,17.98
2022-10-30T01:31:51.846Z,17.38
2022-10-30T01:34:29.112Z,13.57
2022-10-30T01:37:30.172Z,12.52
2022-10-30T01:42:50.208Z,12.25
2022-10-30T01:45:42.970Z,13.93
2022-10-30T01:48:50.207Z,13.73
2022-10-30T01:51:24.486Z,15.63
2022-10-30T01:54:33.613Z,15.55
2022-10-30T01:57:37.314Z,14.75
2022-10-30T02:00:11.423Z,16.75
2022-10-30T02:02:42.896Z,16.00
2022-10-30T02:05:21.369Z,14.93
2022-10-30T02:07:48.716Z,15.15
2022-10-30T02:10:16.079Z,13.77
2022-10-30T02:12:43.504Z,14.57
2022-10-30T02:15:12.948Z,15.73
2022-10-30T02:17:40.794Z,16.45
2022-10-30T02:20:18.873Z,17.85
2022-10-30T02:22:47.315Z,19.45
2022-10-30T02:25:15.374Z,17.42
2022-10-30T02:27:42.934Z,20.92
2022-10-30T02:30:12.791Z,20.80
2022-10-30T02:32:40.024Z,18.15
2022-10-30T02:35:08.530Z,19.67
2022-10-30T02:37:36.068Z,20.33
2022-10-30T02:40:05.181Z,47.70
2022-10-30T02:42:32.454Z,20.30
2022-10-30T02:44:59.934Z,18.25
2022-10-30T02:47:29.009Z,12.85
2022-10-30T02:49:56.225Z,15.27
2022-10-30T02:52:23.531Z,13.88
2022-10-30T02:54:51.885Z,14.13
2022-10-30T02:57:19.191Z,12.60
2022-10-30T02:59:46.630Z,12.98
2022-10-30T03:02:14.089Z,12.85
2022-10-30T03:04:41.499Z,12.43
2022-10-30T03:07:11.610Z,15.73
2022-10-30T03:09:38.930Z,17.35
2022-10-30T03:12:06.590Z,27.30
2022-10-30T03:14:33.899Z,23.10
2022-10-30T03:17:01.110Z,25.70
2022-10-30T03:19:28.327Z,20.00
2022-10-30T03:21:55.785Z,17.35
2022-10-30T03:24:22.978Z,20.15
2022-10-30T03:26:50.282Z,16.77
2022-10-30T03:29:17.691Z,16.20
2022-10-30T03:31:44.967Z,16.08
2022-10-30T03:34:19.559Z,18.15
2022-10-30T03:36:46.851Z,16.60
2022-10-30T03:39:14.476Z,18.75
2022-10-30T03:41:43.956Z,16.83
2022-10-30T03:44:13.062Z,17.27
2022-10-30T03:46:40.325Z,17.98
2022-10-30T03:49:24.383Z,14.38
2022-10-30T03:51:51.635Z,17.10
2022-10-30T03:54:18.887Z,18.02
2022-10-30T03:56:46.634Z,25.63
2022-10-30T03:59:16.687Z,16.83
2022-10-30T04:01:53.151Z,16.20
2022-10-30T04:04:20.656Z,18.20
2022-10-30T04:06:48.769Z,20.27
2022-10-30T04:09:16.722Z,16.67
2022-10-30T04:11:44.634Z,29.98
2022-10-30T04:14:11.789Z,15.65
2022-10-30T04:16:39.012Z,15.55
2022-10-30T04:19:06.340Z,19.15
2022-10-30T04:21:33.748Z,18.30
2022-10-30T04:24:01.679Z,28.90
2022-10-30T04:26:31.688Z,15.13
2022-10-30T04:28:58.968Z,16.83
2022-10-30T04:31:26.637Z,19.70
2022-10-30T04:33:55.025Z,16.65
2022-10-30T04:36:24.515Z,34.33
2022-10-30T04:38:51.761Z,16.50
2022-10-30T04:41:20.602Z,27.00
2022-10-30T04:43:56.789Z,14.02
2022-10-30T04:46:24.060Z,18.38
2022-10-30T04:48:54.581Z,24.50
2022-10-30T04:51:21.784Z,15.25
2022-10-30T04:53:49.137Z,15.95
2022-10-30T04:56:17.010Z,10.90
2022-10-30T04:58:44.362Z,11.27
2022-10-30T05:01:11.910Z,10.18
2022-10-30T05:03:39.304Z,9.45
2022-10-30T05:06:28.111Z,8.52
2022-10-30T05:08:56.231Z,9.23
2022-10-30T05:11:32.392Z,14.80
2022-10-30T05:13:59.644Z,12.55
2022-10-30T05:16:26.895Z,9.98
2022-10-30T05:18:55.533Z,8.50
2022-10-30T05:21:22.768Z,11.15
2022-10-30T05:23:50.098Z,12.27
2022-10-30T05:26:18.003Z,10.10
2022-10-30T05:28:45.155Z,8.60
2022-10-30T05:31:12.496Z,8.73
2022-10-30T05:34:07.406Z,7.50
2022-10-30T05:36:36.874Z,7.85
2022-10-30T05:39:04.598Z,12.00
2022-10-30T05:41:41.685Z,9.82
2022-10-30T05:44:09.377Z,16.35
2022-10-30T05:46:39.536Z,10.30
2022-10-30T05:49:15.682Z,10.18
2022-10-30T05:51:43.367Z,8.25
2022-10-30T05:54:11.864Z,8.95
2022-10-30T05:56:49.161Z,8.85
2022-10-30T05:59:16.514Z,9.75
2022-10-30T06:04:17.390Z,7.95
2022-10-30T06:06:44.620Z,9.07
2022-10-30T06:09:11.949Z,10.07
2022-10-30T06:12:08.701Z,10.10
2022-10-30T06:14:53.477Z,10.18
2022-10-30T06:17:20.818Z,8.40
2022-10-30T06:19:55.630Z,9.43
2022-10-30T06:22:57.721Z,8.05
2022-10-30T06:25:33.115Z,8.43
2022-10-30T06:28:14.955Z,9.63
2022-10-30T06:30:42.992Z,8.07
2022-10-30T06:33:10.915Z,7.00
2022-10-30T06:35:41.486Z,7.25
2022-10-30T06:38:10.227Z,6.95
2022-10-30T06:40:37.487Z,7.38
2022-10-30T06:43:27.903Z,7.32
2022-10-30T06:48:26.188Z,6.55
2022-10-30T06:50:56.723Z,6.13
2022-10-30T06:53:25.825Z,5.93
2022-10-30T06:56:03.903Z,5.75
2022-10-30T06:58:43.846Z,4.65
2022-10-30T07:01:21.170Z,4.20
2022-10-30T07:04:06.807Z,4.85
2022-10-30T07:06:34.117Z,5.20
2022-10-30T07:09:01.355Z,3.67
2022-10-30T07:11:28.842Z,3.80
2022-10-30T07:14:16.295Z,4.18
2022-10-30T07:17:10.091Z,4.05
2022-10-30T07:19:38.905Z,3.10
2022-10-30T07:22:06.559Z,3.40
2022-10-30T07:24:35.155Z,3.05
2022-10-30T07:27:25.877Z,2.63
2022-10-30T07:30:17.555Z,3.42
2022-10-30T07:33:14.387Z,3.30
2022-10-30T07:35:56.355Z,2.55
2022-10-30T07:38:45.220Z,4.07
2022-10-30T07:41:28.116Z,3.67
2022-10-30T07:44:13.922Z,3.88
2022-10-30T07:47:04.450Z,4.05
2022-10-30T07:49:52.161Z,4.05
2022-10-30T07:52:19.493Z,4.05
2022-10-30T07:54:49.039Z,5.03
2022-10-30T07:57:40.920Z,5.25
2022-10-30T08:00:47.765Z,4.65
2022-10-30T08:03:29.471Z,5.18
2022-10-30T08:06:04.649Z,5.03
2022-10-30T08:08:37.916Z,5.65
2022-10-30T08:11:22.245Z,5.43
2022-10-30T08:13:49.590Z,4.10
2022-10-30T08:16:18.672Z,4.43
2022-10-30T08:18:46.109Z,4.28
2022-10-30T08:21:13.343Z,4.03
2022-10-30T08:23:54.790Z,5.63
2022-10-30T08:26:22.716Z,5.88
2022-10-30T08:28:49.993Z,5.32
2022-10-30T08:31:17.318Z,5.47
2022-10-30T08:34:16.890Z,5.18
2022-10-30T08:36:52.215Z,5.43
2022-10-30T08:39:20.641Z,5.05
2022-10-30T08:42:00.506Z,6.10
2022-10-30T08:44:33.787Z,5.53
2022-10-30T08:47:23.975Z,6.32
2022-10-30T08:49:51.567Z,6.10
2022-10-30T08:52:22.200Z,6.43
2022-10-30T08:54:55.129Z,5.80
2022-10-30T08:59:53.720Z,6.72
2022-10-30T09:02:47.458Z,6.85
2022-10-30T09:05:33.473Z,6.22
2022-10-30T09:08:28.358Z,6.18
2022-10-30T09:11:24.704Z,6.05
2022-10-30T09:13:52.149Z,5.68
2022-10-30T09:16:19.497Z,6.05
2022-10-30T09:18:46.721Z,5.90
2022-10-30T09:21:14.147Z,6.65
2022-10-30T09:23:49.816Z,6.07
2022-10-30T09:26:35.445Z,5.75
2022-10-30T09:29:10.690Z,6.38
2022-10-30T09:31:56.748Z,6.93
2022-10-30T09:37:24.873Z,6.13
2022-10-30T09:39:55.826Z,7.50
2022-10-30T09:42:44.138Z,6.20
2022-10-30T09:45:38.646Z,6.43
2022-10-30T09:48:44.724Z,6.88
2022-10-30T09:51:38.349Z,6.82
2022-10-30T09:54:28.477Z,6.95
2022-10-30T09:57:22.221Z,7.43
2022-10-30T10:00:33.079Z,5.50
2022-10-30T10:03:33.544Z,7.20
2022-10-30T10:06:21.275Z,6.78
2022-10-30T10:09:15.734Z,6.82
2022-10-30T10:12:09.689Z,6.53
2022-10-30T10:14:43.133Z,6.97
2022-10-30T10:17:34.656Z,5.70
2022-10-30T10:20:05.721Z,5.18
2022-10-30T10:22:38.003Z,5.22
2022-10-30T10:25:13.278Z,5.80
2022-10-30T10:28:13.433Z,6.05
2022-10-30T10:31:31.381Z,5.65
2022-10-30T10:34:46.703Z,5.70
2022-10-30T10:37:53.237Z,6.75
2022-10-30T10:40:35.386Z,6.75
2022-10-30T10:43:42.583Z,6.93
2022-10-30T10:46:46.772Z,6.20
2022-10-30T10:49:40.261Z,6.43
2022-10-30T10:52:30.519Z,5.95
2022-10-30T10:55:14.841Z,7.30
2022-10-30T10:57:43.764Z,6.90
2022-10-30T11:00:23.775Z,6.30
2022-10-30T11:03:19.365Z,7.32
2022-10-30T11:06:28.544Z,8.63
2022-10-30T11:09:17.022Z,6.00
2022-10-30T11:11:45.779Z,6.95
2022-10-30T11:14:23.498Z,6.38
2022-10-30T11:16:53.316Z,6.05
2022-10-30T11:21:53.127Z,6.50
2022-10-30T11:24:27.874Z,6.47
2022-10-30T11:27:18.116Z,5.47
2022-10-30T11:29:55.117Z,5.72
2022-10-30T11:32:29.979Z,5.00
2022-10-30T11:35:19.271Z,6.07
2022-10-30T11:37:50.385Z,6.28
2022-10-30T11:40:24.070Z,6.95
2022-10-30T11:43:02.613Z,5.40
2022-10-30T11:45:43.306Z,5.10
2022-10-30T11:48:30.013Z,5.35
2022-10-30T11:51:03.948Z,4.78
2022-10-30T11:53:48.778Z,5.10
2022-10-30T11:56:21.985Z,6.00
2022-10-30T11:59:00.062Z,4.72
2022-10-30T12:01:31.261Z,5.50
2022-10-30T12:04:24.062Z,5.13
2022-10-30T12:07:23.185Z,5.63
2022-10-30T12:09:50.715Z,5.53
2022-10-30T12:12:42.626Z,5.70
2022-10-30T12:15:15.234Z,6.15
2022-10-30T12:18:15.994Z,6.72
2022-10-30T12:20:48.736Z,7.13
2022-10-30T12:23:22.156Z,6.50
2022-10-30T12:25:52.302Z,6.05
2022-10-30T12:28:29.549Z,5.32
2022-10-30T12:31:41.133Z,5.93
2022-10-30T12:34:45.010Z,6.20
2022-10-30T12:37:34.044Z,5.85
2022-10-30T12:40:10.941Z,5.55
2022-10-30T12:42:50.001Z,5.97
2022-10-30T12:45:28.441Z,5.25
2022-10-30T12:48:09.149Z,5.28
2022-10-30T12:51:22.959Z,5.95
2022-10-30T12:54:40.338Z,5.55
2022-10-30T12:57:24.279Z,6.07
2022-10-30T13:00:10.407Z,5.45
2022-10-30T13:02:50.337Z,6.28
2022-10-30T13:09:00.913Z,5.72
2022-10-30T13:11:40.303Z,5.30
2022-10-30T13:14:17.530Z,5.38
2022-10-30T13:16:45.006Z,6.32
2022-10-30T13:19:13.961Z,5.72
2022-10-30T13:21:49.706Z,5.93
2022-10-30T13:25:05.668Z,5.93
2022-10-30T13:28:12.156Z,5.28
2022-10-30T13:30:46.685Z,5.95
2022-10-30T13:33:35.584Z,5.75
2022-10-30T13:36:21.607Z,5.22
2022-10-30T13:39:47.504Z,5.63
2022-10-30T13:43:17.333Z,5.60
2022-10-30T13:46:02.082Z,6.00
2022-10-30T13:48:35.322Z,7.07
2022-10-30T13:51:17.560Z,6.47
2022-10-30T13:53:49.788Z,6.60
2022-10-30T13:56:19.457Z,7.20
2022-10-30T13:59:14.909Z,7.35
2022-10-30T14:02:28.786Z,8.15
2022-10-30T14:05:18.770Z,7.10
2022-10-30T14:08:10.201Z,7.32
2022-10-30T14:11:00.682Z,7.07
2022-10-30T14:13:36.076Z,6.85
2022-10-30T14:16:07.385Z,6.53
2022-10-30T14:18:59.104Z,7.25
2022-10-30T14:21:50.751Z,5.97
2022-10-30T14:27:03.680Z,5.80
2022-10-30T14:29:51.480Z,6.30
2022-10-30T14:32:18.685Z,6.93
2022-10-30T14:34:50.173Z,6.25
2022-10-30T14:37:37.542Z,7.13
2022-10-30T14:40:32.722Z,7.10
2022-10-30T14:43:09.495Z,8.52
2022-10-30T14:45:53.086Z,8.13
2022-10-30T14:48:53.596Z,7.22
2022-10-30T14:54:34.004Z,8.48
2022-10-30T14:57:01.142Z,7.18
2022-10-30T14:59:34.886Z,7.88
2022-10-30T15:02:24.111Z,7.20
2022-10-30T15:05:31.270Z,7.22
2022-10-30T15:08:34.147Z,7.57
2022-10-30T15:11:35.070Z,7.90
2022-10-30T15:14:48.575Z,9.57
2022-10-30T15:17:40.738Z,9.40
2022-10-30T15:25:24.617Z,6.90
2022-10-30T15:27:57.632Z,7.43
2022-10-30T15:30:27.592Z,8.70
2022-10-30T15:32:55.485Z,8.10
2022-10-30T15:35:26.421Z,8.07
2022-10-30T15:38:11.828Z,7.78
2022-10-30T15:40:39.635Z,9.25
2022-10-30T15:43:12.843Z,8.07
2022-10-30T15:45:47.869Z,9.50
2022-10-30T15:48:33.184Z,8.82
2022-10-30T15:51:23.321Z,9.10
2022-10-30T15:53:58.298Z,7.97
2022-10-30T15:57:08.072Z,8.27
2022-10-30T15:59:32.820Z,7.32
2022-10-30T16:02:00.512Z,8.48
2022-10-30T16:04:35.927Z,7.47
2022-10-30T16:07:35.937Z,8.25
2022-10-30T16:10:04.865Z,7.60
2022-10-30T16:12:34.954Z,6.47
2022-10-30T16:15:16.066Z,8.02
2022-10-30T16:17:43.363Z,8.23
2022-10-30T16:20:11.905Z,7.82
2022-10-30T16:22:40.324Z,7.63
2022-10-30T16:25:10.107Z,8.80
2022-10-30T16:27:45.517Z,8.45
2022-10-30T16:30:17.296Z,13.15
2022-10-30T16:32:52.893Z,13.35
2022-10-30T16:35:23.096Z,9.80
2022-10-30T16:37:50.922Z,10.80
2022-10-30T16:40:28.944Z,10.93
2022-10-30T16:42:59.917Z,11.13
2022-10-30T16:45:34.096Z,12.13
2022-10-30T16:48:30.244Z,12.95
2022-10-30T16:51:03.915Z,13.07
2022-10-30T16:53:32.394Z,11.88
2022-10-30T16:56:00.612Z,11.07
2022-10-30T16:58:31.611Z,13.38
2022-10-30T17:01:06.893Z,11.77
2022-10-30T17:03:40.539Z,12.40
2022-10-30T17:06:35.611Z,12.38
2022-10-30T17:09:10.133Z,13.52
2022-10-30T17:11:46.393Z,16.02
2022-10-30T17:14:22.835Z,16.92
2022-10-30T17:17:00.326Z,17.25
2022-10-30T17:19:30.378Z,15.32
2022-10-30T17:22:13.883Z,16.83
2022-10-30T17:24:41.663Z,17.63
2022-10-30T17:27:35.312Z,17.50
2022-10-30T17:30:03.078Z,14.63
2022-10-30T17:32:45.081Z,14.48
2022-10-30T17:35:19.493Z,17.67
2022-10-30T17:37:46.999Z,16.40
2022-10-30T17:40:14.931Z,16.60
2022-10-30T17:42:42.578Z,16.15
2022-10-30T17:45:17.440Z,14.73
2022-10-30T17:47:44.758Z,15.43
2022-10-30T17:50:12.338Z,15.02
2022-10-30T17:52:39.855Z,14.98
2022-10-30T17:55:27.646Z,12.65
2022-10-30T17:57:54.980Z,12.77
2022-10-30T18:00:22.341Z,12.38
2022-10-30T18:02:49.948Z,12.13
2022-10-30T18:05:21.921Z,12.32
2022-10-30T18:10:17.653Z,11.63
2022-10-30T18:12:45.427Z,11.85
2022-10-30T18:15:39.325Z,10.63
2022-10-30T18:18:07.081Z,10.75
2022-10-30T18:20:34.431Z,10.70
2022-10-30T18:23:02.298Z,10.93
2022-10-30T18:25:36.281Z,9.20
2022-10-30T18:28:03.652Z,9.10
2022-10-30T18:30:31.263Z,9.63
2022-10-30T18:32:59.019Z,9.02
2022-10-30T18:35:31.873Z,10.20
2022-10-30T18:37:59.944Z,9.55
2022-10-30T18:40:27.596Z,9.20
2022-10-30T18:42:55.400Z,9.60
2022-10-30T18:45:25.480Z,9.52
2022-10-30T18:47:54.600Z,9.00
2022-10-30T18:50:24.728Z,9.70
2022-10-30T18:52:52.221Z,9.27
2022-10-30T18:55:25.339Z,10.68
2022-10-30T18:57:53.631Z,10.00
2022-10-30T19:00:39.750Z,9.60
2022-10-30T19:03:12.774Z,9.85
2022-10-30T19:05:51.057Z,9.00
2022-10-30T19:08:18.632Z,9.27
2022-10-30T19:10:47.710Z,8.27
2022-10-30T19:13:21.171Z,9.90
2022-10-30T19:15:57.428Z,8.90
2022-10-30T19:18:28.939Z,8.73
2022-10-30T19:21:05.891Z,6.93
2022-10-30T19:23:35.446Z,9.77
2022-10-30T19:26:02.753Z,7.18
2022-10-30T19:28:30.988Z,6.65
2022-10-30T19:30:58.332Z,7.20
2022-10-30T19:33:26.109Z,7.43
2022-10-30T19:36:01.567Z,6.55
2022-10-30T19:38:30.221Z,6.55
2022-10-30T19:40:58.302Z,6.65
2022-10-30T19:43:25.700Z,7.82
2022-10-30T19:45:58.034Z,6.82
2022-10-30T19:48:55.521Z,6.95
2022-10-30T19:51:13.288Z,7.55
2022-10-30T19:53:41.138Z,7.57
2022-10-30T19:56:12.973Z,6.25
2022-10-30T19:58:40.277Z,6.75
2022-10-30T20:01:07.623Z,6.82
2022-10-30T20:03:35.062Z,6.88
2022-10-30T20:06:02.341Z,6.60
2022-10-30T20:08:29.647Z,6.72
2022-10-30T20:11:02.297Z,6.43
2022-10-30T20:13:30.579Z,6.50
2022-10-30T20:16:00.170Z,6.13
2022-10-30T20:18:31.737Z,6.93
2022-10-30T20:21:02.252Z,5.78
2022-10-30T20:23:30.407Z,6.53
2022-10-30T20:26:05.359Z,7.03
2022-10-30T20:28:37.871Z,6.57
2022-10-30T20:31:07.166Z,6.72
2022-10-30T20:33:35.060Z,8.02
2022-10-30T20:36:02.605Z,7.18
2022-10-30T20:38:33.139Z,6.70
2022-10-30T20:43:34.512Z,5.82
2022-10-30T20:46:04.330Z,6.70
2022-10-30T20:48:31.807Z,8.68
2022-10-30T20:51:01.223Z,6.70
2022-10-30T20:53:29.716Z,6.07
2022-10-30T20:55:57.440Z,6.38
2022-10-30T20:58:25.206Z,6.32
2022-10-30T21:00:55.747Z,6.05
2022-10-30T21:05:57.709Z,5.97
2022-10-30T21:08:31.454Z,5.57
2022-10-30T21:11:00.876Z,6.22
2022-10-30T21:13:28.759Z,5.43
2022-10-30T21:16:02.292Z,4.75
2022-10-30T21:18:29.787Z,4.63
2022-10-30T21:21:08.553Z,5.47
2022-10-30T21:23:35.967Z,4.35
2022-10-30T21:26:06.538Z,5.00
2022-10-30T21:31:06.565Z,5.55
2022-10-30T21:33:36.297Z,4.93
2022-10-30T21:36:13.815Z,5.17
2022-10-30T21:38:43.188Z,5.18
2022-10-30T21:41:13.464Z,5.35
2022-10-30T21:43:40.977Z,4.90
2022-10-30T21:46:13.018Z,4.65
2022-10-30T21:48:40.641Z,4.55
2022-10-30T21:51:17.469Z,4.18
2022-10-30T21:53:46.537Z,5.32
2022-10-30T21:56:20.986Z,5.30
2022-10-30T21:58:49.213Z,4.72
2022-10-30T22:01:26.800Z,5.80
2022-10-30T22:03:54.662Z,6.50
2022-10-30T22:06:23.030Z,4.57
2022-10-30T22:08:53.108Z,5.50
2022-10-30T22:11:24.626Z,4.72
2022-10-30T22:14:00.797Z,5.25
2022-10-30T22:16:31.107Z,4.38
2022-10-30T22:18:59.497Z,4.72
2022-10-30T22:21:27.476Z,4.20
2022-10-30T22:23:54.789Z,5.35
2022-10-30T22:26:23.871Z,4.88
2022-10-30T22:28:56.785Z,4.35
2022-10-30T22:31:26.258Z,5.70
2022-10-30T22:33:53.867Z,4.32
2022-10-30T22:36:30.654Z,4.35
2022-10-30T22:39:12.580Z,4.53
2022-10-30T22:41:40.691Z,5.18
2022-10-30T22:44:14.318Z,5.15
2022-10-30T22:46:41.718Z,4.47
2022-10-30T22:49:09.437Z,4.20
2022-10-30T22:51:38.717Z,4.57
2022-10-30T22:54:10.726Z,3.95
2022-10-30T22:56:38.608Z,4.80
2022-10-30T22:59:10.607Z,4.43
2022-10-30T23:01:39.239Z,5.05
2022-10-30T23:04:09.595Z,5.22
2022-10-30T23:06:36.998Z,5.05
2022-10-30T23:09:09.561Z,5.00
2022-10-30T23:11:37.059Z,4.65
2022-10-30T23:14:04.308Z,5.72
2022-10-30T23:16:31.729Z,4.20
2022-10-30T23:19:00.747Z,3.92
2022-10-30T23:21:31.677Z,3.53
2022-10-30T23:23:59.623Z,4.45
2022-10-30T23:26:33.289Z,4.63
2022-10-30T23:29:02.360Z,3.70
2022-10-30T23:31:38.350Z,4.63
2022-10-30T23:34:09.362Z,4.80
2022-10-30T23:36:38.299Z,4.70
2022-10-30T23:39:10.181Z,3.20
2022-10-30T23:41:37.465Z,3.83
2022-10-30T23:44:12.405Z,3.60
2022-10-30T23:46:40.102Z,4.20
2022-10-30T23:49:07.757Z,4.28
2022-10-30T23:51:35.267Z,3.63
2022-10-30T23:54:02.889Z,4.00
2022-10-30T23:56:30.993Z,3.75
2022-10-30T23:58:58.233Z,3.63
